Time;durP1;ratioP1;P1;durP2;ratioP2;P2;SDS_P1;SDS_P2;PMS_P1;PMS_P2;Temp;Humidity;BMP_temperature;BMP_pressure;BME280_temperature;BME280_humidity;BME280_pressure;Samples;Min_cycle;Max_cycle;Signal;HPM_P1;HPM_P2
2022/03/24 00:01:48;;;;;;;41.15;26.70;;;10.50;92.10;;;;;;6278635;22;20278;-72
2022/03/24 00:04:15;;;;;;;38.35;26.35;;;10.60;92.20;;;;;;6277222;22;20192;-71
2022/03/24 00:06:42;;;;;;;52.17;29.58;;;10.50;92.30;;;;;;6277054;22;20178;-71
2022/03/24 00:09:11;;;;;;;40.20;27.52;;;10.50;92.50;;;;;;6277327;22;20237;-70
2022/03/24 00:11:38;;;;;;;45.60;28.02;;;10.40;92.70;;;;;;6276869;22;20194;-72
2022/03/24 00:14:05;;;;;;;41.05;26.70;;;10.30;92.90;;;;;;6276409;22;20202;-70
2022/03/24 00:16:32;;;;;;;44.00;27.83;;;10.20;93.20;;;;;;6277272;22;20163;-70
2022/03/24 00:18:59;;;;;;;48.15;28.63;;;10.10;93.40;;;;;;6277276;22;20272;-70
2022/03/24 00:21:26;;;;;;;48.85;28.38;;;10.20;93.50;;;;;;6276533;22;20162;-70
2022/03/24 00:23:54;;;;;;;45.42;27.42;;;10.20;93.70;;;;;;6277220;22;20225;-71
2022/03/24 00:26:22;;;;;;;44.20;28.27;;;10.10;93.80;;;;;;6277186;22;20163;-71
2022/03/24 00:28:49;;;;;;;49.67;30.30;;;10.10;93.90;;;;;;6277224;22;20517;-69
2022/03/24 00:31:16;;;;;;;41.42;26.05;;;10.10;94.00;;;;;;6276649;22;20198;-70
2022/03/24 00:33:43;;;;;;;43.97;26.67;;;10.00;94.10;;;;;;6276455;22;20234;-70
2022/03/24 00:36:11;;;;;;;43.60;28.70;;;10.00;94.20;;;;;;6277304;22;20174;-71
2022/03/24 00:38:38;;;;;;;39.95;27.10;;;10.00;94.40;;;;;;6276686;22;20506;-70
2022/03/24 00:41:05;;;;;;;43.95;28.58;;;9.90;95.00;;;;;;6276430;22;20194;-70
2022/03/24 00:43:33;;;;;;;39.83;27.42;;;9.90;95.20;;;;;;6276619;22;20248;-70
2022/03/24 00:46:01;;;;;;;47.90;30.50;;;9.80;95.60;;;;;;6277297;22;20224;-71
2022/03/24 00:48:28;;;;;;;42.00;28.27;;;9.70;95.90;;;;;;6276901;22;20195;-70
2022/03/24 00:50:55;;;;;;;44.35;29.58;;;9.60;96.30;;;;;;6275942;22;20173;-71
2022/03/24 00:53:23;;;;;;;54.92;30.00;;;9.50;96.80;;;;;;6276656;22;20218;-72
2022/03/24 00:55:50;;;;;;;48.08;30.42;;;9.50;97.10;;;;;;6277078;22;20159;-72
2022/03/24 00:58:18;;;;;;;47.90;30.48;;;9.40;97.50;;;;;;6277240;22;20241;-71
2022/03/24 01:00:48;;;;;;;45.67;28.50;;;9.30;97.90;;;;;;6276843;22;20162;-71
2022/03/24 01:03:15;;;;;;;46.70;29.30;;;9.30;98.20;;;;;;6276984;22;20241;-71
2022/03/24 01:05:42;;;;;;;47.80;30.98;;;9.30;98.30;;;;;;6277541;22;20589;-71
2022/03/24 01:08:09;;;;;;;50.67;32.42;;;9.30;98.60;;;;;;6277492;22;20163;-70
2022/03/24 01:10:37;;;;;;;48.35;31.30;;;9.30;98.70;;;;;;6275949;22;20162;-71
2022/03/24 01:13:04;;;;;;;46.78;30.95;;;9.20;98.90;;;;;;6276498;22;20166;-71
2022/03/24 01:15:32;;;;;;;49.67;33.28;;;9.20;99.20;;;;;;6276770;22;20237;-72
2022/03/24 01:18:00;;;;;;;41.03;27.73;;;9.10;99.50;;;;;;6276558;22;20249;-71
2022/03/24 01:20:27;;;;;;;49.25;29.67;;;9.10;99.90;;;;;;6276623;22;20246;-71
2022/03/24 01:22:55;;;;;;;49.15;30.00;;;9.10;99.90;;;;;;6276899;22;20248;-71
2022/03/24 01:25:23;;;;;;;50.00;29.98;;;9.10;99.90;;;;;;6276230;22;20528;-71
2022/03/24 01:27:51;;;;;;;45.17;29.48;;;9.10;99.90;;;;;;6276805;22;20249;-70
2022/03/24 01:30:20;;;;;;;48.03;29.13;;;9.10;99.90;;;;;;6275516;22;20236;-71
2022/03/24 01:32:47;;;;;;;41.35;28.42;;;9.10;99.90;;;;;;6274488;22;20162;-71
2022/03/24 01:35:16;;;;;;;48.42;30.90;;;9.00;99.90;;;;;;6276747;22;20288;-71
2022/03/24 01:37:43;;;;;;;46.78;29.02;;;9.00;99.90;;;;;;6276643;22;20556;-70
2022/03/24 01:40:13;;;;;;;44.85;29.88;;;9.00;99.90;;;;;;6276294;22;20464;-70
2022/03/24 01:42:43;;;;;;;47.63;30.63;;;8.90;99.90;;;;;;6276752;22;20241;-70
2022/03/24 01:45:11;;;;;;;53.70;30.67;;;8.90;99.90;;;;;;6278458;22;20269;-71
2022/03/24 01:47:38;;;;;;;47.75;29.55;;;8.90;99.90;;;;;;6282408;22;20162;-70
2022/03/24 01:50:07;;;;;;;49.50;31.10;;;9.00;99.90;;;;;;6280587;22;20166;-70
2022/03/24 01:52:36;;;;;;;47.30;30.17;;;8.90;99.90;;;;;;6277414;22;20664;-70
2022/03/24 01:55:06;;;;;;;66.63;32.15;;;8.90;99.90;;;;;;6276687;22;20282;-71
2022/03/24 01:57:33;;;;;;;51.70;31.95;;;8.90;99.90;;;;;;6276869;22;20219;-72
2022/03/24 02:00:01;;;;;;;44.97;31.65;;;8.90;99.90;;;;;;6275573;22;20194;-70
2022/03/24 02:02:29;;;;;;;53.75;30.23;;;8.80;99.90;;;;;;6275949;22;20594;-71
2022/03/24 02:04:56;;;;;;;48.67;30.60;;;8.90;99.90;;;;;;6276141;22;20264;-70
2022/03/24 02:07:23;;;;;;;42.72;29.58;;;8.80;99.90;;;;;;6275455;22;20233;-71
2022/03/24 02:09:51;;;;;;;44.03;29.55;;;8.80;99.90;;;;;;6275729;22;20174;-70
2022/03/24 02:12:18;;;;;;;43.53;28.80;;;8.80;99.90;;;;;;6276477;22;20252;-70
2022/03/24 02:14:45;;;;;;;48.53;30.05;;;8.80;99.90;;;;;;6275623;22;20721;-71
2022/03/24 02:17:12;;;;;;;51.97;30.85;;;9.00;99.90;;;;;;6276351;22;20197;-70
2022/03/24 02:19:40;;;;;;;42.10;30.23;;;8.90;99.90;;;;;;6276002;22;20245;-71
2022/03/24 02:22:12;;;;;;;49.00;31.05;;;8.90;99.90;;;;;;6275333;22;20163;-70
2022/03/24 02:24:40;;;;;;;42.95;28.33;;;8.80;99.90;;;;;;6276405;22;20279;-71
2022/03/24 02:27:07;;;;;;;51.05;29.95;;;8.90;99.90;;;;;;6276102;22;20221;-71
2022/03/24 02:29:35;;;;;;;48.95;30.20;;;8.90;99.90;;;;;;6275616;22;20223;-70
2022/03/24 02:32:07;;;;;;;50.13;31.77;;;8.90;99.90;;;;;;6274865;22;20184;-73
2022/03/24 02:34:40;;;;;;;52.20;30.42;;;8.90;99.90;;;;;;6276196;22;20204;-70
2022/03/24 02:37:09;;;;;;;49.28;31.45;;;8.80;99.90;;;;;;6276259;22;20161;-70
2022/03/24 02:39:39;;;;;;;48.53;30.58;;;8.90;99.90;;;;;;6275123;22;20216;-70
2022/03/24 02:42:07;;;;;;;53.80;31.55;;;8.80;99.90;;;;;;6275921;22;20166;-70
2022/03/24 02:44:34;;;;;;;50.83;30.75;;;8.70;99.90;;;;;;6275244;22;20276;-70
2022/03/24 02:47:06;;;;;;;49.22;30.13;;;8.70;99.90;;;;;;6275330;22;20241;-70
2022/03/24 02:49:35;;;;;;;46.53;30.83;;;8.70;99.90;;;;;;6276395;22;20486;-71
2022/03/24 02:52:03;;;;;;;45.90;29.48;;;8.80;99.90;;;;;;6276981;22;20241;-71
2022/03/24 02:54:32;;;;;;;49.33;30.55;;;8.70;99.90;;;;;;6276823;22;20504;-70
2022/03/24 02:57:00;;;;;;;46.92;30.77;;;8.70;99.90;;;;;;6277004;22;20190;-70
2022/03/24 02:59:27;;;;;;;48.45;31.58;;;8.70;99.90;;;;;;6276158;22;20185;-70
2022/03/24 03:02:21;;;;;;;48.13;31.60;;;8.80;99.90;;;;;;6276692;22;20178;-70
2022/03/24 03:04:51;;;;;;;51.40;32.15;;;8.70;99.90;;;;;;6275852;22;20194;-71
2022/03/24 03:07:20;;;;;;;42.75;30.38;;;8.70;99.90;;;;;;6276162;22;20494;-72
2022/03/24 03:09:47;;;;;;;43.90;30.15;;;8.60;99.90;;;;;;6275116;22;20162;-71
2022/03/24 03:12:16;;;;;;;57.10;32.67;;;8.60;99.90;;;;;;6276019;22;20257;-72
2022/03/24 03:14:43;;;;;;;52.58;34.13;;;8.50;99.90;;;;;;6275541;22;20202;-71
2022/03/24 03:17:11;;;;;;;45.38;30.50;;;8.50;99.90;;;;;;6275972;22;20249;-71
2022/03/24 03:19:39;;;;;;;48.42;30.90;;;8.40;99.90;;;;;;6275104;22;20173;-69
2022/03/24 03:22:06;;;;;;;48.25;31.15;;;8.40;99.90;;;;;;6275967;22;20219;-71
2022/03/24 03:24:33;;;;;;;43.13;28.80;;;8.30;99.90;;;;;;6275644;22;20219;-71
2022/03/24 03:27:00;;;;;;;48.25;30.58;;;8.30;99.90;;;;;;6275932;22;20183;-70
2022/03/24 03:29:28;;;;;;;51.58;32.45;;;8.30;99.90;;;;;;6276437;22;20318;-70
2022/03/24 03:31:55;;;;;;;50.67;30.70;;;8.30;99.90;;;;;;6275999;22;20245;-70
2022/03/24 03:34:24;;;;;;;47.00;33.00;;;8.20;99.90;;;;;;6275537;22;20284;-70
2022/03/24 03:36:53;;;;;;;53.40;32.20;;;8.20;99.90;;;;;;6277322;22;20165;-70
2022/03/24 03:39:20;;;;;;;48.30;31.55;;;8.20;99.90;;;;;;6284442;22;20605;-69
2022/03/24 03:41:47;;;;;;;47.40;31.75;;;8.10;99.90;;;;;;6279137;22;20597;-70
2022/03/24 03:44:14;;;;;;;56.10;37.00;;;8.00;99.90;;;;;;6275474;22;20228;-70
2022/03/24 03:46:42;;;;;;;53.33;35.05;;;8.00;99.90;;;;;;6275962;22;20244;-71
2022/03/24 03:49:10;;;;;;;57.58;35.80;;;7.90;99.90;;;;;;6275919;22;20167;-70
2022/03/24 03:51:38;;;;;;;52.15;35.35;;;7.90;99.90;;;;;;6274694;22;20177;-70
2022/03/24 03:54:05;;;;;;;61.05;35.60;;;7.80;99.90;;;;;;6275048;22;20204;-70
2022/03/24 03:56:32;;;;;;;56.55;33.22;;;7.80;99.90;;;;;;6275143;22;20198;-71
2022/03/24 03:58:59;;;;;;;55.05;35.35;;;7.70;99.90;;;;;;6275425;22;20272;-71
2022/03/24 04:01:26;;;;;;;53.90;34.17;;;7.70;99.90;;;;;;6274838;22;20192;-70
2022/03/24 04:03:55;;;;;;;55.97;33.78;;;7.70;99.90;;;;;;6275381;22;20196;-70
2022/03/24 04:06:24;;;;;;;64.93;36.95;;;7.60;99.90;;;;;;6275438;22;20165;-70
2022/03/24 04:08:51;;;;;;;53.25;32.78;;;7.60;99.90;;;;;;6275222;22;20189;-71
2022/03/24 04:11:19;;;;;;;64.85;36.88;;;7.50;99.90;;;;;;6274469;22;20195;-70
2022/03/24 04:13:46;;;;;;;59.88;35.80;;;7.60;99.90;;;;;;6275799;22;20280;-70
2022/03/24 04:16:13;;;;;;;60.92;35.83;;;7.50;99.90;;;;;;6275200;22;20191;-70
2022/03/24 04:18:41;;;;;;;52.85;31.67;;;7.50;99.90;;;;;;6275444;22;20251;-71
2022/03/24 04:21:09;;;;;;;83.50;35.30;;;7.40;99.90;;;;;;6274528;22;20598;-70
2022/03/24 04:23:38;;;;;;;58.40;35.90;;;7.40;99.90;;;;;;6275178;22;20231;-71
2022/03/24 04:26:05;;;;;;;59.38;37.72;;;7.30;99.90;;;;;;6275734;22;20234;-71
2022/03/24 04:28:32;;;;;;;54.90;34.65;;;7.30;99.90;;;;;;6276960;22;20238;-70
2022/03/24 04:31:00;;;;;;;52.85;35.22;;;7.40;99.90;;;;;;6276676;22;20171;-71
2022/03/24 04:33:26;;;;;;;69.20;37.03;;;7.30;99.90;;;;;;6277093;22;20226;-71
2022/03/24 04:35:54;;;;;;;56.47;35.63;;;7.30;99.90;;;;;;6276897;22;20190;-71
2022/03/24 04:38:22;;;;;;;58.33;34.38;;;7.30;99.90;;;;;;6277005;22;20225;-70
2022/03/24 04:40:49;;;;;;;57.22;34.60;;;7.30;99.90;;;;;;6276509;22;20194;-71
2022/03/24 04:43:16;;;;;;;62.42;37.03;;;7.30;99.90;;;;;;6276308;22;20239;-71
2022/03/24 04:45:43;;;;;;;58.63;33.60;;;7.30;99.90;;;;;;6276656;22;20496;-71
2022/03/24 04:48:10;;;;;;;53.17;36.13;;;7.30;99.90;;;;;;6277199;22;20160;-71
2022/03/24 04:50:38;;;;;;;53.08;34.60;;;7.30;99.90;;;;;;6276585;22;20175;-71
2022/03/24 04:53:05;;;;;;;55.83;34.35;;;7.40;99.90;;;;;;6277025;22;20244;-70
2022/03/24 04:55:33;;;;;;;57.88;36.00;;;7.50;99.90;;;;;;6276900;22;20273;-71
2022/03/24 04:58:00;;;;;;;54.17;33.00;;;7.50;99.90;;;;;;6276764;22;20599;-74
2022/03/24 05:00:27;;;;;;;52.92;33.35;;;7.60;99.90;;;;;;6277043;22;20245;-71
2022/03/24 05:02:54;;;;;;;56.30;34.33;;;7.60;99.90;;;;;;6276344;22;20165;-71
2022/03/24 05:05:21;;;;;;;51.00;33.13;;;7.50;99.90;;;;;;6277114;22;20224;-71
2022/03/24 05:07:48;;;;;;;49.30;32.30;;;7.60;99.90;;;;;;6276969;22;20194;-70
2022/03/24 05:10:15;;;;;;;56.25;34.85;;;7.50;99.90;;;;;;6275866;22;20551;-71
2022/03/24 05:12:43;;;;;;;55.35;35.25;;;7.50;99.90;;;;;;6278222;22;20164;-71
2022/03/24 05:15:14;;;;;;;50.17;33.00;;;7.30;99.90;;;;;;6276481;22;20733;-71
2022/03/24 05:17:41;;;;;;;57.30;35.42;;;7.20;99.90;;;;;;6276893;22;20175;-70
2022/03/24 05:20:09;;;;;;;58.78;35.78;;;7.20;99.90;;;;;;6276298;22;20163;-71
2022/03/24 05:22:40;;;;;;;58.92;35.72;;;7.20;99.90;;;;;;6276863;22;20160;-71
2022/03/24 05:25:07;;;;;;;58.42;35.47;;;7.20;99.90;;;;;;6277199;22;20195;-71
2022/03/24 05:27:35;;;;;;;53.03;32.97;;;7.20;99.90;;;;;;6279983;22;20161;-69
2022/03/24 05:30:04;;;;;;;54.42;33.55;;;7.20;99.90;;;;;;6277640;22;20169;-69
2022/03/24 05:32:31;;;;;;;60.40;35.28;;;7.20;99.90;;;;;;6277427;22;20168;-71
2022/03/24 05:35:00;;;;;;;58.00;35.78;;;7.20;99.90;;;;;;6275948;22;20207;-70
2022/03/24 05:37:27;;;;;;;52.03;34.08;;;7.10;99.90;;;;;;6277040;22;20163;-71
2022/03/24 05:39:54;;;;;;;63.75;36.72;;;7.10;99.90;;;;;;6275602;22;20171;-70
2022/03/24 05:42:21;;;;;;;52.40;34.17;;;7.20;99.90;;;;;;6275020;22;20247;-70
2022/03/24 05:44:48;;;;;;;58.38;36.95;;;7.20;99.90;;;;;;6275939;22;20220;-70
2022/03/24 05:47:17;;;;;;;64.65;34.85;;;7.40;99.90;;;;;;6275841;22;20200;-70
2022/03/24 05:49:44;;;;;;;58.50;37.42;;;7.40;99.90;;;;;;6275360;22;20188;-71
2022/03/24 05:52:11;;;;;;;57.60;37.78;;;7.50;99.90;;;;;;6276330;22;20168;-71
2022/03/24 05:54:38;;;;;;;57.03;35.05;;;7.60;99.90;;;;;;6275403;22;20212;-71
2022/03/24 05:57:05;;;;;;;53.35;35.08;;;7.70;99.90;;;;;;6276505;22;20239;-70
2022/03/24 05:59:32;;;;;;;56.17;35.25;;;7.80;99.90;;;;;;6275170;22;20705;-70
2022/03/24 06:01:59;;;;;;;57.85;36.05;;;7.80;99.90;;;;;;6276520;22;20244;-71
2022/03/24 06:04:30;;;;;;;59.65;36.80;;;8.00;99.90;;;;;;6276454;22;20205;-70
2022/03/24 06:07:00;;;;;;;48.25;31.05;;;8.20;99.90;;;;;;6275895;22;20165;-69
2022/03/24 06:09:28;;;;;;;54.53;33.85;;;8.20;99.90;;;;;;6276450;22;20166;-72
2022/03/24 06:11:56;;;;;;;60.45;35.97;;;8.40;99.90;;;;;;6276611;22;20520;-70
2022/03/24 06:14:23;;;;;;;53.70;32.28;;;8.60;99.90;;;;;;6275946;22;20194;-69
2022/03/24 06:16:50;;;;;;;57.70;33.80;;;9.10;99.90;;;;;;6275441;22;20194;-70
2022/03/24 06:19:18;;;;;;;60.90;34.70;;;9.70;99.90;;;;;;6276463;22;20194;-71
2022/03/24 06:21:48;;;;;;;55.47;33.00;;;10.50;99.90;;;;;;6275989;22;20208;-71
2022/03/24 06:24:15;;;;;;;54.03;32.53;;;11.40;96.70;;;;;;6275662;22;20200;-71
2022/03/24 06:26:43;;;;;;;50.33;33.15;;;12.40;94.30;;;;;;6275858;22;20244;-71
2022/03/24 06:29:11;;;;;;;43.75;31.10;;;13.00;91.90;;;;;;6275908;22;20173;-72
2022/03/24 06:31:38;;;;;;;45.85;31.67;;;13.90;90.40;;;;;;6274720;22;20245;-69
2022/03/24 06:34:05;;;;;;;41.22;30.80;;;14.70;86.80;;;;;;6275607;22;20588;-69
2022/03/24 06:36:33;;;;;;;45.45;33.53;;;15.40;84.00;;;;;;6275729;22;20195;-70
2022/03/24 06:39:01;;;;;;;50.43;35.00;;;16.10;79.80;;;;;;6275804;22;20631;-70
2022/03/24 06:41:29;;;;;;;49.03;33.07;;;16.90;77.70;;;;;;6273189;22;20389;-70
2022/03/24 06:43:57;;;;;;;49.83;36.30;;;17.50;74.60;;;;;;6271896;22;20453;-69
2022/03/24 06:46:25;;;;;;;45.37;34.73;;;18.00;71.70;;;;;;6275255;22;20706;-69
2022/03/24 06:48:52;;;;;;;46.03;32.33;;;18.30;69.30;;;;;;6275480;22;20393;-69
2022/03/24 06:51:19;;;;;;;51.00;33.77;;;18.50;67.30;;;;;;6274868;22;20495;-69
2022/03/24 06:53:46;;;;;;;74.93;51.87;;;18.60;67.00;;;;;;6275502;22;20436;-70
2022/03/24 06:56:15;;;;;;;53.33;39.37;;;18.80;65.50;;;;;;6275469;22;20823;-70
2022/03/24 06:58:43;;;;;;;47.10;33.03;;;18.60;65.50;;;;;;6275653;22;20500;-70
2022/03/24 07:01:10;;;;;;;48.03;32.67;;;18.30;65.10;;;;;;6274724;22;20428;-70
2022/03/24 07:03:37;;;;;;;40.37;31.83;;;18.30;65.30;;;;;;6274944;22;20428;-70
2022/03/24 07:06:05;;;;;;;48.87;33.03;;;18.40;65.80;;;;;;6275528;22;20454;-70
2022/03/24 07:08:32;;;;;;;45.70;33.90;;;18.30;64.40;;;;;;6275371;22;20392;-69
2022/03/24 07:10:58;;;;;;;44.90;30.37;;;18.60;64.10;;;;;;6274818;22;20527;-71
2022/03/24 07:13:27;;;;;;;44.70;30.50;;;18.90;63.70;;;;;;6275452;22;20437;-70
2022/03/24 07:15:54;;;;;;;40.43;31.67;;;19.40;63.20;;;;;;6274868;22;20436;-70
2022/03/24 07:18:23;;;;;;;40.73;29.70;;;19.80;62.20;;;;;;6276052;22;20404;-70
2022/03/24 07:20:59;;;;;;;46.50;30.00;;;20.10;61.70;;;;;;6275611;22;20451;-70
2022/03/24 07:23:26;;;;;;;44.10;32.17;;;20.60;60.30;;;;;;6275430;22;20428;-71
2022/03/24 07:25:55;;;;;;;45.73;33.63;;;21.50;58.90;;;;;;6276267;22;20382;-68
2022/03/24 07:28:22;;;;;;;43.93;31.10;;;21.80;57.50;;;;;;6275340;22;20397;-69
2022/03/24 07:30:51;;;;;;;42.87;31.60;;;21.70;57.50;;;;;;6275074;22;20476;-72
2022/03/24 07:33:19;;;;;;;42.80;31.27;;;22.10;56.20;;;;;;6273984;22;20400;-72
2022/03/24 07:35:48;;;;;;;48.97;33.53;;;22.30;55.10;;;;;;6273659;22;20460;-72
2022/03/24 07:38:16;;;;;;;38.50;29.60;;;22.40;53.60;;;;;;6274995;22;20799;-70
2022/03/24 07:40:43;;;;;;;41.63;30.57;;;23.30;52.70;;;;;;6271609;22;20385;-71
2022/03/24 07:43:11;;;;;;;44.77;32.83;;;23.50;51.90;;;;;;6273154;22;20558;-72
2022/03/24 07:45:38;;;;;;;41.33;31.00;;;23.50;50.90;;;;;;6273489;22;20413;-72
2022/03/24 07:48:11;;;;;;;40.00;30.37;;;22.80;52.70;;;;;;6275978;22;20397;-72
2022/03/24 07:50:39;;;;;;;39.13;31.30;;;22.20;52.00;;;;;;6282274;22;20393;-72
2022/03/24 07:53:19;;;;;;;45.30;32.10;;;22.00;52.70;;;;;;6275863;22;20491;-71
2022/03/24 07:55:47;;;;;;;42.03;31.43;;;21.70;52.20;;;;;;6275446;22;20511;-70
2022/03/24 07:58:16;;;;;;;41.20;28.53;;;21.50;52.10;;;;;;6275026;22;20416;-71
2022/03/24 08:00:43;;;;;;;39.63;29.83;;;21.50;52.70;;;;;;6274819;22;20390;-71
2022/03/24 08:03:13;;;;;;;36.77;29.73;;;22.00;51.90;;;;;;6276108;22;20763;-71
2022/03/24 08:05:40;;;;;;;39.77;31.00;;;21.70;51.40;;;;;;6277721;22;20423;-71
2022/03/24 08:08:09;;;;;;;36.93;27.50;;;22.30;51.80;;;;;;6277370;22;20397;-70
2022/03/24 08:10:36;;;;;;;43.13;30.97;;;22.80;50.40;;;;;;6276512;22;20755;-74
2022/03/24 08:13:04;;;;;;;35.30;27.67;;;22.70;49.70;;;;;;6276609;22;20421;-72
2022/03/24 08:15:31;;;;;;;30.97;27.27;;;23.50;50.10;;;;;;6276670;22;20508;-72
2022/03/24 08:17:58;;;;;;;39.27;29.10;;;24.10;49.00;;;;;;6277470;22;20481;-72
2022/03/24 08:20:26;;;;;;;39.53;29.80;;;24.60;47.60;;;;;;6276406;22;20516;-73
2022/03/24 08:22:53;;;;;;;34.97;28.33;;;24.10;47.70;;;;;;6277852;22;20393;-73
2022/03/24 08:25:20;;;;;;;45.83;30.50;;;23.80;46.90;;;;;;6276768;22;20459;-73
2022/03/24 08:27:48;;;;;;;36.40;29.90;;;23.80;47.10;;;;;;6278362;22;20389;-71
2022/03/24 08:30:15;;;;;;;40.90;32.20;;;23.10;46.90;;;;;;6276272;22;20385;-72
2022/03/24 08:32:42;;;;;;;37.77;29.70;;;23.00;48.30;;;;;;6276732;22;20393;-73
2022/03/24 08:35:10;;;;;;;34.33;28.37;;;22.80;48.50;;;;;;6276949;22;20504;-72
2022/03/24 08:37:38;;;;;;;40.43;27.70;;;22.90;48.60;;;;;;6277634;22;20473;-71
2022/03/24 08:40:06;;;;;;;44.27;33.07;;;23.20;48.20;;;;;;6276361;22;20390;-72
2022/03/24 08:42:34;;;;;;;43.80;31.30;;;23.80;47.80;;;;;;6276711;22;20435;-72
2022/03/24 08:45:02;;;;;;;40.53;30.93;;;23.50;47.00;;;;;;6276539;22;20436;-71
2022/03/24 08:47:29;;;;;;;36.90;30.70;;;23.20;47.80;;;;;;6276425;22;20393;-72
2022/03/24 08:49:56;;;;;;;38.90;30.23;;;23.20;48.10;;;;;;6276368;22;20424;-72
2022/03/24 08:52:23;;;;;;;37.63;28.93;;;23.60;48.10;;;;;;6276994;22;20396;-72
2022/03/24 08:54:52;;;;;;;34.10;29.07;;;24.20;47.80;;;;;;6277388;22;20464;-72
2022/03/24 08:57:25;;;;;;;36.93;29.70;;;24.30;49.00;;;;;;6277084;22;20467;-72
2022/03/24 08:59:53;;;;;;;38.50;28.37;;;24.30;47.70;;;;;;6248707;22;20405;-71
2022/03/24 09:02:21;;;;;;;40.93;31.50;;;24.80;47.20;;;;;;6276422;22;20864;-73
2022/03/24 09:04:48;;;;;;;42.73;30.57;;;24.30;45.40;;;;;;6275527;22;20449;-71
2022/03/24 09:07:15;;;;;;;39.53;29.53;;;24.70;45.40;;;;;;6277452;22;20413;-71
2022/03/24 09:09:42;;;;;;;40.17;30.73;;;24.60;44.90;;;;;;6276219;22;20460;-70
2022/03/24 09:12:11;;;;;;;32.87;26.80;;;24.20;45.00;;;;;;6277054;22;20460;-71
2022/03/24 09:14:38;;;;;;;36.50;28.57;;;24.70;45.20;;;;;;6276856;22;20500;-70
2022/03/24 09:17:06;;;;;;;31.70;28.30;;;25.30;44.70;;;;;;6276340;22;20544;-70
2022/03/24 09:19:33;;;;;;;35.77;28.80;;;25.40;43.70;;;;;;6275978;22;20420;-70
2022/03/24 09:22:01;;;;;;;32.63;27.53;;;25.90;42.60;;;;;;6276810;22;20393;-71
2022/03/24 09:24:28;;;;;;;39.00;29.47;;;25.80;42.30;;;;;;6276047;22;20503;-71
2022/03/24 09:26:55;;;;;;;37.73;30.30;;;26.20;42.50;;;;;;6276761;22;20389;-70
2022/03/24 09:29:24;;;;;;;35.20;30.27;;;26.20;41.90;;;;;;6276007;22;20435;-70
2022/03/24 09:31:51;;;;;;;37.97;28.07;;;26.20;41.90;;;;;;6274679;22;20435;-71
2022/03/24 09:34:19;;;;;;;39.40;28.27;;;25.50;42.20;;;;;;6276701;22;20490;-71
2022/03/24 09:36:46;;;;;;;33.20;27.00;;;25.20;42.40;;;;;;6282898;22;20500;-71
2022/03/24 09:39:14;;;;;;;37.80;28.57;;;24.60;44.00;;;;;;6278468;22;20428;-70
2022/03/24 09:41:43;;;;;;;41.80;28.97;;;23.70;43.40;;;;;;6275634;22;20476;-72
2022/03/24 09:44:11;;;;;;;39.53;30.10;;;24.10;45.20;;;;;;6275205;22;20876;-71
2022/03/24 09:46:41;;;;;;;43.07;30.83;;;24.80;44.30;;;;;;6275580;22;20389;-72
2022/03/24 09:49:10;;;;;;;40.70;32.13;;;25.00;43.40;;;;;;6276580;22;20428;-72
2022/03/24 09:51:40;;;;;;;32.90;27.37;;;24.80;43.30;;;;;;6275637;22;20385;-71
2022/03/24 09:54:10;;;;;;;35.03;27.80;;;24.80;43.20;;;;;;6276675;22;20428;-73
2022/03/24 09:56:37;;;;;;;35.27;28.57;;;25.10;43.10;;;;;;6275646;22;20436;-70
2022/03/24 09:59:05;;;;;;;35.50;28.10;;;25.50;43.00;;;;;;6274999;22;20557;-73
2022/03/24 10:01:32;;;;;;;35.80;29.47;;;25.70;42.60;;;;;;6276746;22;20412;-76
2022/03/24 10:04:09;;;;;;;35.90;28.37;;;24.70;42.10;;;;;;6276184;22;20805;-73
2022/03/24 10:06:39;;;;;;;40.57;30.43;;;24.40;44.20;;;;;;6275848;22;20746;-72
2022/03/24 10:09:06;;;;;;;36.97;29.27;;;24.40;44.10;;;;;;6276168;22;20458;-72
2022/03/24 10:11:35;;;;;;;31.37;26.37;;;24.40;44.30;;;;;;6274642;22;20916;-73
2022/03/24 10:14:03;;;;;;;33.90;27.87;;;23.50;43.60;;;;;;6275247;22;20428;-74
2022/03/24 10:16:43;;;;;;;31.47;25.90;;;23.70;44.80;;;;;;6275899;22;20429;-73
2022/03/24 10:19:14;;;;;;;32.93;27.90;;;24.40;44.70;;;;;;6275518;22;20906;-74
2022/03/24 10:21:43;;;;;;;32.00;25.70;;;25.00;43.70;;;;;;6275150;22;20413;-73
2022/03/24 10:24:13;;;;;;;30.67;26.47;;;24.90;43.50;;;;;;6274827;22;20957;-73
2022/03/24 10:26:44;;;;;;;37.30;27.20;;;24.80;43.30;;;;;;6276188;22;20416;-72
2022/03/24 10:29:12;;;;;;;34.57;27.10;;;24.60;42.90;;;;;;6275696;22;20425;-71
2022/03/24 10:31:41;;;;;;;35.20;27.13;;;24.60;43.20;;;;;;6274263;22;20480;-71
2022/03/24 10:34:10;;;;;;;35.93;27.50;;;24.70;43.60;;;;;;6275265;22;20911;-70
2022/03/24 10:36:41;;;;;;;34.87;25.63;;;24.50;43.40;;;;;;6276072;22;20420;-72
2022/03/24 10:39:09;;;;;;;35.73;27.43;;;24.10;43.50;;;;;;6275114;22;20400;-70
2022/03/24 10:41:38;;;;;;;34.90;27.40;;;24.00;43.60;;;;;;6273512;22;20382;-71
2022/03/24 10:44:07;;;;;;;42.37;26.40;;;24.10;43.70;;;;;;6274702;22;20420;-72
2022/03/24 10:46:36;;;;;;;35.57;26.00;;;23.80;43.20;;;;;;6275519;22;20405;-71
2022/03/24 10:49:17;;;;;;;34.10;25.73;;;23.40;44.40;;;;;;6275427;22;20472;-71
2022/03/24 10:51:47;;;;;;;36.20;26.17;;;22.60;45.00;;;;;;6275086;22;20417;-69
2022/03/24 10:54:30;;;;;;;32.40;25.20;;;22.00;46.90;;;;;;6276154;22;20513;-72
2022/03/24 10:57:03;;;;;;;42.03;26.37;;;21.70;47.50;;;;;;6275331;22;20447;-70
2022/03/24 10:59:36;;;;;;;29.43;24.53;;;21.30;47.90;;;;;;6274716;22;20416;-70
2022/03/24 11:02:04;;;;;;;36.90;26.93;;;21.10;48.60;;;;;;6275471;22;20800;-71
2022/03/24 11:04:31;;;;;;;32.87;25.90;;;20.80;49.00;;;;;;6275703;22;20498;-71
2022/03/24 11:07:08;;;;;;;33.97;26.93;;;20.70;49.40;;;;;;6276626;22;20715;-71
2022/03/24 11:09:36;;;;;;;32.27;25.90;;;20.50;49.90;;;;;;6275615;22;20391;-71
2022/03/24 11:12:26;;;;;;;35.63;26.30;;;20.50;50.50;;;;;;6276865;22;20475;-71
2022/03/24 11:14:55;;;;;;;31.20;22.53;;;20.10;50.50;;;;;;6275367;22;20428;-70
2022/03/24 11:17:24;;;;;;;38.80;26.33;;;20.10;51.30;;;;;;6275420;22;20503;-70
2022/03/24 11:19:57;;;;;;;39.93;28.60;;;20.10;51.50;;;;;;6275665;22;20389;-71
2022/03/24 11:22:38;;;;;;;36.27;25.67;;;20.20;51.60;;;;;;6276498;22;20763;-70
2022/03/24 11:25:05;;;;;;;43.40;27.17;;;20.20;51.30;;;;;;6251458;22;20507;-71
2022/03/24 11:27:33;;;;;;;41.23;30.10;;;20.30;51.50;;;;;;6277316;22;20777;-70
2022/03/24 11:30:01;;;;;;;36.17;26.80;;;19.90;51.60;;;;;;6274980;22;20385;-70
2022/03/24 11:32:28;;;;;;;38.80;27.93;;;20.00;52.20;;;;;;6275638;22;20446;-71
2022/03/24 11:34:56;;;;;;;39.30;28.53;;;20.10;53.10;;;;;;6274532;22;20423;-70
2022/03/24 11:37:25;;;;;;;41.33;27.47;;;20.10;52.80;;;;;;6277107;22;20514;-71
2022/03/24 11:40:06;;;;;;;38.20;28.20;;;20.10;52.90;;;;;;6276341;22;20986;-70
2022/03/24 11:42:35;;;;;;;35.80;27.67;;;19.60;52.60;;;;;;6250987;22;20469;-70
2022/03/24 11:45:07;;;;;;;35.33;26.90;;;19.90;52.80;;;;;;6276546;22;20509;-70
2022/03/24 11:47:52;;;;;;;36.50;26.90;;;19.80;52.50;;;;;;6276874;22;20867;-71
2022/03/24 11:50:34;;;;;;;40.10;28.70;;;19.90;53.30;;;;;;6276935;22;20712;-70
2022/03/24 11:53:11;;;;;;;35.93;27.03;;;19.90;53.00;;;;;;6276956;22;20897;-71
2022/03/24 11:55:38;;;;;;;43.33;27.30;;;20.00;52.20;;;;;;6250817;22;20404;-71
2022/03/24 11:58:06;;;;;;;37.47;27.50;;;19.90;53.00;;;;;;6277193;22;20471;-71
2022/03/24 12:00:42;;;;;;;33.60;23.87;;;19.70;53.10;;;;;;6276385;22;20399;-71
2022/03/24 12:03:44;;;;;;;34.63;27.07;;;19.70;53.10;;;;;;6277021;22;20480;-70
2022/03/24 12:06:13;;;;;;;38.07;26.50;;;19.40;54.10;;;;;;6276907;22;20455;-71
2022/03/24 12:08:52;;;;;;;34.70;26.13;;;19.60;54.40;;;;;;6277286;22;20408;-71
2022/03/24 12:11:41;;;;;;;36.83;26.90;;;19.60;53.70;;;;;;6276302;22;20414;-71
2022/03/24 12:14:11;;;;;;;41.10;29.10;;;19.50;54.10;;;;;;6276673;22;20486;-71
2022/03/24 12:16:39;;;;;;;36.87;25.70;;;19.40;53.80;;;;;;6275976;22;20456;-71
2022/03/24 12:19:08;;;;;;;31.90;24.77;;;19.40;55.30;;;;;;6277645;22;20396;-71
2022/03/24 12:21:35;;;;;;;38.73;24.43;;;19.20;53.80;;;;;;6276108;22;20392;-70
2022/03/24 12:24:16;;;;;;;32.30;24.60;;;19.10;54.10;;;;;;6276912;22;20456;-70
2022/03/24 12:26:51;;;;;;;32.57;23.83;;;19.30;54.20;;;;;;6276973;22;20385;-69
2022/03/24 12:29:19;;;;;;;38.93;25.43;;;19.10;53.60;;;;;;6277160;22;20446;-71
2022/03/24 12:31:57;;;;;;;33.70;24.90;;;18.90;54.20;;;;;;6276219;22;20420;-70
2022/03/24 12:34:29;;;;;;;35.00;25.37;;;18.90;54.60;;;;;;6276278;22;20417;-71
2022/03/24 12:36:56;;;;;;;37.00;26.27;;;18.90;54.20;;;;;;6276488;22;20429;-71
2022/03/24 12:39:37;;;;;;;37.87;29.30;;;18.80;54.70;;;;;;6276605;22;20381;-71